Terminal Aerodrome Forecast
Issued by NWS Sioux Falls, SD

Home | Current Version | Previous Version | Graphics & Text | Print | Product List | Glossary Off
Versions: 1 2 3 4 5 6 7 8 9 10 11 12

280
FTUS43 KFSD 152340
TAFHON
TAF
KHON 152340Z 1600/1624 16004KT P6SM SCT250
     FM161300 00000KT P6SM BKN080
     FM162100 33006KT P6SM BKN200=

USA.gov is the U.S. government's official web portal to all federal, state and local government web resources and services.